Details From YPDN - Darwin Intl
To NWWW - Noumea La Tontouta
Flight Number -
Tags Decoded
Created
Modified
Stats Distance 2,104 nm / 3,897 km
Max Altitude 0 ft / 0 m
Waypoints 6
Social Downloads 3
Likes 0
Share VATSIM

Download

Looking for another format? Having issues loading an existing format? Contact us
Advertisement - Login to hide

Notes

Decoded

Route

YPDN DUMAV CS PUGEL TOSAM NWWW

ID Type Via Altitude Latitude Longitude Leg Dist Tot Dist Heading (true) Name
O YPDN APT - 0 ft / 0 m -12.40889˚ 130.87067˚ - 0 nm - -
DUMAV FIX - 0 ft / 0 m -13.94083˚ 135.59583˚ 291 nm 291 nm 109° / 108° -
CS VOR - 0 ft / 0 m -16.85000˚ 145.74389˚ 612 nm 904 nm 108° / 105° CAIRNS VOR-DME
PUGEL FIX - 0 ft / 0 m -19.82750˚ 156.22444˚ 623 nm 1527 nm 108° / 105° -
TOSAM FIX - 0 ft / 0 m -21.78767˚ 165.82964˚ 551 nm 2079 nm 104° / 101° -
O NWWW APT - 0 ft / 0 m -22.00756˚ 166.20102˚ 24 nm 2103 nm 123° / 122° -

Altitude Profile

Advertisement - Login to hide

Weather


0- 5 10 15 20 25 30 35+ Temperature / ° C

Clouds and Precipitation
Forecast for 2018-05-21 18:00 UTC. Updated 3 hours ago

Ground ~20,000 ft ~40,000 ft Winds

YPDN

Details ICAO YPDN (DRW)
Name Darwin Intl
Region Australia
Timezone Australia/Darwin (UTC+9.5)
Stats Elevation 102 ft / 31 m (AMSL)
Location -12.415064° 130.875278°
Runways 2
Magnetic Variation 2.632° E

METAR

YPDN 212000Z 11006KT CAVOK 23/14 Q1012 NOSIG

Decode

TAF

TAF YPDN 211726Z 2118/2224 12005KT CAVOK FM212300 11014KT CAVOK FM220700 12008KT CAVOK

Decode

Departure Runways

ID Width Length Bearing (true) Bearing (mag) Surface Threshold Offset Overrun Length
11 197 ft / 60 m 10,997 ft / 3,352 m 109.02° 106.39° Asphalt 0 ft / 0 m 0 ft / 0 m
18 98 ft / 30 m 5,029 ft / 1,533 m 179.85° 177.22° Asphalt 0 ft / 0 m 0 ft / 0 m
29 197 ft / 60 m 10,997 ft / 3,352 m 289.02° 286.39° Asphalt 0 ft / 0 m 0 ft / 0 m
36 98 ft / 30 m 5,029 ft / 1,533 m 359.85° 357.22° Asphalt 0 ft / 0 m 0 ft / 0 m

NWWW

Details ICAO NWWW (NOU)
Name Noumea La Tontouta
Region New Caledonia
Timezone Pacific/Noumea (UTC+11.0)
Stats Elevation 51 ft / 16 m (AMSL)
Location -22.014529° 166.213022°
Runways 1
Magnetic Variation 12.347° E

METAR

NWWW 212000Z AUTO 19004KT 150V220 9999 OVC036 20/19 Q1016 TEMPO 4000 SHRA BKN014 FEW020TCU

Decode

TAF

TAF NWWW 211700Z 2118/2218 VRB02KT 9999 FEW020 SCT035 TEMPO 2118/2122 4000 SHRA BKN014 FEW020TCU BECMG 2122/2124 14010KT BECMG 2206/2208 VRB02KT

Decode

Destination Runways

ID Width Length Bearing (true) Bearing (mag) Surface Threshold Offset Overrun Length
11 148 ft / 45 m 10,666 ft / 3,251 m 121.21° 108.86° Asphalt 0 ft / 0 m 338 ft / 103 m
29 148 ft / 45 m 10,666 ft / 3,251 m 301.19° 288.84° Asphalt 0 ft / 0 m 354 ft / 108 m

Approach Navaids

Runway Type Ident Frequency Range Bearing (true) Bearing (mag) Slope Elevation
11 Localiser LT 109.90 MHz 18 nm / 33 km 120.69° 108.34° - 52 ft / 16 m (AMSL)
11 Glidescope LT 109.90 MHz 10 nm / 19 km 121.20° 108.85° 3.00° 24 ft / 7 m (AMSL)

Popular Alternatives